Terminal Aerodrome Forecast
Issued by NWS

Home | Current Version | Previous Version | Graphics & Text | Print | Product List | Glossary On
Versions: 1 2 3 4 5 6 7 8 9 10 11 12 13 14 15 16 17 18
000
FTUS42 KMHX 250522
TAFPGV
TAF
KPGV 250522Z 2506/2606 00000KT P6SM SCT100 OVC250
     FM251200 VRB04KT P6SM BKN100
     FM252100 15006KT 5SM -RA BR SCT007 OVC015
     FM260000 VRB03KT 3SM -RA BR BKN007 OVC015
     FM260300 28003KT P6SM VCSH OVC005
      AMD LTD TO CLD VIS AND WIND=

USA.gov is the U.S. government's official web portal to all federal, state and local government web resources and services.